Time;durP1;ratioP1;P1;durP2;ratioP2;P2;SDS_P1;SDS_P2;PMS_P1;PMS_P2;Temp;Humidity;BMP_temperature;BMP_pressure;BME280_temperature;BME280_humidity;BME280_pressure;Samples;Min_cycle;Max_cycle;Signal;HPM_P1;HPM_P2
2022/11/26 00:00:27;;;;;;;;;57.50;38.50;;;;;10.61;70.46;102475.88;5079174;28;45281;-53
2022/11/26 00:02:53;;;;;;;;;37.25;37.00;;;;;10.63;70.59;102487.28;5079955;28;46102;-50
2022/11/26 00:05:20;;;;;;;;;44.00;37.50;;;;;10.66;70.52;102488.88;5079030;28;45868;-51
2022/11/26 00:07:56;;;;;;;;;46.00;40.25;;;;;10.66;70.59;102492.41;5080136;27;45447;-53
2022/11/26 00:10:25;;;;;;;;;54.75;42.50;;;;;10.70;70.58;102493.03;5079063;28;45410;-53
2022/11/26 00:12:51;;;;;;;;;44.25;37.00;;;;;10.71;70.24;102498.28;5080785;27;45358;-53
2022/11/26 00:15:18;;;;;;;;;31.00;23.25;;;;;10.70;70.45;102501.00;5079290;27;45338;-49
2022/11/26 00:17:43;;;;;;;;;52.50;39.75;;;;;10.63;70.18;102495.28;5080125;27;45381;-53
2022/11/26 00:20:09;;;;;;;;;42.00;39.25;;;;;10.61;70.41;102505.16;5079643;27;45279;-50
2022/11/26 00:22:48;;;;;;;;;45.00;38.50;;;;;10.56;70.08;102506.44;5079544;27;45190;-54
2022/11/26 00:25:20;;;;;;;;;38.75;36.25;;;;;10.50;70.19;102502.38;5079369;28;45338;-52
2022/11/26 00:27:47;;;;;;;;;47.00;40.00;;;;;10.47;70.22;102511.41;5079487;27;45311;-54
2022/11/26 00:30:17;;;;;;;;;53.75;41.25;;;;;10.40;70.67;102512.78;5079476;27;45384;-53
2022/11/26 00:32:42;;;;;;;;;47.25;39.75;;;;;10.38;70.68;102513.84;5079136;27;45432;-51
2022/11/26 00:35:07;;;;;;;;;50.75;37.25;;;;;10.36;70.72;102515.75;5079274;27;45234;-54
2022/11/26 00:37:39;;;;;;;;;44.75;36.75;;;;;10.37;70.93;102514.81;5079295;27;45267;-51
2022/11/26 00:40:06;;;;;;;;;47.25;36.25;;;;;10.40;70.84;102514.59;5079216;27;45546;-51
2022/11/26 00:42:31;;;;;;;;;48.50;37.50;;;;;10.40;71.17;102506.59;5079835;27;45351;-48
2022/11/26 00:44:56;;;;;;;;;47.25;38.00;;;;;10.39;70.89;102510.22;5079591;27;45320;-53
2022/11/26 00:47:22;;;;;;;;;47.25;36.75;;;;;10.34;70.55;102518.50;5079564;27;45541;-54
2022/11/26 00:49:47;;;;;;;;;49.00;37.25;;;;;10.31;70.46;102510.72;5078200;27;45439;-53
2022/11/26 00:52:33;;;;;;;;;46.00;37.25;;;;;10.23;70.78;102524.50;5078816;27;46290;-52
2022/11/26 00:55:02;;;;;;;;;45.00;35.25;;;;;10.20;70.89;102521.22;5079084;27;45244;-54
2022/11/26 00:57:27;;;;;;;;;47.75;40.00;;;;;10.15;70.70;102517.97;5079027;27;45394;-51
2022/11/26 00:59:53;;;;;;;;;54.00;37.75;;;;;10.11;70.94;102511.16;5079250;27;45506;-51
2022/11/26 01:02:18;;;;;;;;;50.00;40.75;;;;;10.07;70.74;102521.16;5078215;27;46042;-49
2022/11/26 01:04:44;;;;;;;;;53.25;43.75;;;;;10.05;70.92;102522.19;5078721;27;45313;-50
2022/11/26 01:07:10;;;;;;;;;59.75;40.50;;;;;9.99;71.27;102519.00;5078946;27;45243;-51
2022/11/26 01:09:35;;;;;;;;;37.75;30.00;;;;;9.98;71.04;102524.38;5078827;27;45238;-52
2022/11/26 01:12:00;;;;;;;;;45.50;40.50;;;;;9.96;71.43;102534.28;5078563;27;45597;-51
2022/11/26 01:14:26;;;;;;;;;42.25;31.75;;;;;9.93;71.15;102530.00;5078640;27;45508;-53
2022/11/26 01:16:54;;;;;;;;;42.50;37.00;;;;;9.93;71.64;102532.66;5078924;27;45716;-51
2022/11/26 01:19:20;;;;;;;;;51.50;39.00;;;;;9.79;71.17;102515.91;5078812;27;45166;-52
2022/11/26 01:21:45;;;;;;;;;49.50;39.25;;;;;9.88;71.41;102537.44;5078514;27;45909;-49
2022/11/26 01:24:11;;;;;;;;;56.00;38.50;;;;;9.87;71.20;102534.88;5078517;27;45314;-52
2022/11/26 01:26:42;;;;;;;;;48.00;37.00;;;;;9.88;71.30;102539.25;5078570;27;45285;-53
2022/11/26 01:29:14;;;;;;;;;45.00;39.00;;;;;9.85;70.87;102534.13;5078998;27;45326;-53
2022/11/26 01:31:39;;;;;;;;;46.00;37.75;;;;;9.77;71.40;102531.94;5078477;27;46170;-52
2022/11/26 01:34:05;;;;;;;;;46.50;38.75;;;;;9.70;71.59;102534.16;5078267;27;45302;-53
2022/11/26 01:36:33;;;;;;;;;54.00;41.00;;;;;9.68;70.91;102535.19;5078567;27;45405;-51
2022/11/26 01:39:03;;;;;;;;;41.00;35.00;;;;;9.67;70.81;102536.16;5078684;28;45192;-49
2022/11/26 01:41:37;;;;;;;;;44.25;40.25;;;;;9.63;71.26;102537.28;5078123;27;47403;-51
2022/11/26 01:44:06;;;;;;;;;43.00;38.75;;;;;9.57;71.23;102537.69;5078350;27;45440;-51
2022/11/26 01:46:35;;;;;;;;;39.00;36.75;;;;;9.54;70.84;102532.56;5078038;27;45511;-51
2022/11/26 01:49:19;;;;;;;;;38.75;37.50;;;;;9.47;70.88;102530.25;5076832;27;45413;-53
2022/11/26 01:51:47;;;;;;;;;50.25;37.75;;;;;9.44;71.67;102533.13;5077944;27;46376;-49
2022/11/26 01:54:15;;;;;;;;;51.75;40.00;;;;;9.39;71.43;102527.22;5077978;27;45310;-52
2022/11/26 01:56:47;;;;;;;;;41.50;37.50;;;;;9.34;71.71;102534.63;5077926;28;45394;-54
2022/11/26 01:59:33;;;;;;;;;43.75;38.00;;;;;9.32;71.99;102543.66;5077959;27;45405;-51
2022/11/26 02:01:59;;;;;;;;;45.25;40.00;;;;;9.30;71.55;102538.44;5077714;27;46162;-53
2022/11/26 02:04:33;;;;;;;;;43.75;39.00;;;;;9.33;71.82;102542.72;5077776;27;45323;-52
2022/11/26 02:06:59;;;;;;;;;47.25;39.50;;;;;9.33;72.05;102532.09;5076579;27;45313;-51
2022/11/26 02:09:28;;;;;;;;;50.75;42.75;;;;;9.32;71.57;102541.00;5078034;27;45331;-52
2022/11/26 02:11:54;;;;;;;;;48.50;39.25;;;;;9.30;72.01;102534.94;5077672;27;46025;-51
2022/11/26 02:14:23;;;;;;;;;49.75;40.50;;;;;9.27;71.39;102535.97;5077696;27;45307;-51
2022/11/26 02:17:10;;;;;;;;;45.75;39.00;;;;;9.19;71.79;102523.19;5076347;28;45403;-52
2022/11/26 02:19:44;;;;;;;;;46.00;31.50;;;;;9.19;71.96;102524.97;5076716;27;45306;-47
2022/11/26 02:22:45;;;;;;;;;44.50;38.00;;;;;9.16;72.36;102533.13;5077511;27;46242;-53
2022/11/26 02:25:42;;;;;;;;;55.75;41.25;;;;;9.14;71.78;102530.56;5077595;27;45183;-48
2022/11/26 02:28:20;;;;;;;;;49.25;39.50;;;;;9.15;72.26;102537.59;5034774;28;45484;-49
2022/11/26 02:30:50;;;;;;;;;48.00;39.25;;;;;9.14;71.97;102530.56;5035151;28;45555;-44
2022/11/26 02:33:52;;;;;;;;;49.00;40.00;;;;;9.12;71.61;102519.19;5034609;28;46243;-52
2022/11/26 02:36:26;;;;;;;;;47.50;40.00;;;;;9.09;71.85;102522.00;5034866;28;45194;-46
2022/11/26 02:38:51;;;;;;;;;47.75;38.75;;;;;9.05;72.41;102528.44;5034783;28;45424;-51
2022/11/26 02:41:17;;;;;;;;;54.75;39.25;;;;;8.99;72.02;102527.03;5034860;28;45424;-52
2022/11/26 02:43:42;;;;;;;;;52.75;40.25;;;;;8.94;72.47;102520.31;5034783;28;45326;-43
2022/11/26 02:46:14;;;;;;;;;49.50;39.00;;;;;8.91;72.90;102523.13;5034258;28;45446;-54
2022/11/26 02:48:43;;;;;;;;;41.75;37.75;;;;;8.88;72.75;102531.28;5017969;28;45479;-51
2022/11/26 02:51:19;;;;;;;;;48.75;38.75;;;;;8.79;73.03;102526.53;5034807;28;45293;-51
2022/11/26 02:53:47;;;;;;;;;47.50;39.50;;;;;8.76;72.21;102522.25;5034395;28;46111;-49
2022/11/26 02:56:18;;;;;;;;;52.25;38.75;;;;;8.87;72.71;102533.06;5034247;28;45465;-53
2022/11/26 02:58:44;;;;;;;;;46.00;38.50;;;;;8.89;72.79;102531.19;5034673;28;45406;-53
2022/11/26 03:01:17;;;;;;;;;51.75;38.00;;;;;8.91;72.11;102536.41;5034781;28;45400;-48
2022/11/26 03:03:47;;;;;;;;;42.75;37.25;;;;;8.90;72.07;102542.66;5034087;28;46335;-46
2022/11/26 03:06:15;;;;;;;;;37.50;33.50;;;;;8.91;72.33;102536.41;5072803;28;45395;-46
2022/11/26 03:08:43;;;;;;;;;42.50;33.25;;;;;8.92;72.78;102538.09;5077001;27;45288;-51
2022/11/26 03:11:08;;;;;;;;;56.00;36.00;;;;;8.88;72.73;102536.59;5076698;27;45424;-46
2022/11/26 03:13:33;;;;;;;;;47.75;36.00;;;;;8.90;73.09;102532.06;5076840;27;46024;-49
2022/11/26 03:15:59;;;;;;;;;38.75;33.75;;;;;8.86;72.52;102543.78;5076721;27;45215;-46
2022/11/26 03:18:24;;;;;;;;;40.75;37.00;;;;;8.86;72.61;102541.13;5076936;27;45228;-46
2022/11/26 03:20:49;;;;;;;;;52.25;41.75;;;;;8.87;72.76;102534.88;5077155;27;45452;-50
2022/11/26 03:23:15;;;;;;;;;40.00;35.50;;;;;8.90;72.54;102540.00;5076696;27;46060;-52
2022/11/26 03:25:40;;;;;;;;;56.00;38.25;;;;;8.87;72.35;102534.88;5076975;27;45295;-47
2022/11/26 03:28:06;;;;;;;;;50.75;38.25;;;;;8.87;72.66;102541.03;5077016;27;45301;-53
2022/11/26 03:30:31;;;;;;;;;51.00;41.25;;;;;8.85;72.48;102536.75;5077682;27;45377;-45
2022/11/26 03:32:57;;;;;;;;;48.25;41.25;;;;;8.74;72.79;102516.19;5080707;27;46202;-53
2022/11/26 03:35:22;;;;;;;;;46.50;39.00;;;;;8.84;72.59;102537.72;5079674;27;45480;-50
2022/11/26 03:37:48;;;;;;;;;46.50;37.25;;;;;8.81;72.32;102536.09;5080653;28;45362;-53
2022/11/26 03:40:15;;;;;;;;;46.25;34.25;;;;;8.78;73.34;102538.09;5080469;27;45314;-53
2022/11/26 03:42:41;;;;;;;;;40.75;36.25;;;;;8.79;72.55;102531.81;5080029;27;47049;-47
2022/11/26 03:45:07;;;;;;;;;47.00;35.50;;;;;8.79;73.57;102529.19;5079877;27;45422;-54
2022/11/26 03:47:33;;;;;;;;;43.50;36.75;;;;;8.80;72.84;102531.72;5079975;27;45313;-51
2022/11/26 03:49:58;;;;;;;;;40.00;35.00;;;;;8.75;73.29;102529.34;5080119;27;45494;-54
2022/11/26 03:52:23;;;;;;;;;35.00;33.75;;;;;8.70;73.18;102531.44;5079949;27;46029;-53
2022/11/26 03:54:49;;;;;;;;;45.00;35.75;;;;;8.71;73.31;102546.41;5080069;27;45356;-52
2022/11/26 03:57:14;;;;;;;;;50.75;39.50;;;;;8.74;73.11;102545.38;5080071;27;45462;-54
2022/11/26 03:59:39;;;;;;;;;48.25;37.75;;;;;8.77;72.82;102547.00;5080302;27;45405;-54
2022/11/26 04:02:05;;;;;;;;;46.25;37.00;;;;;8.76;72.54;102543.47;5079857;27;45926;-54
2022/11/26 04:04:31;;;;;;;;;50.50;39.75;;;;;8.77;73.03;102549.66;5079767;27;45313;-53
2022/11/26 04:06:56;;;;;;;;;45.25;37.25;;;;;8.74;72.74;102548.88;5080080;27;45333;-48
2022/11/26 04:09:22;;;;;;;;;40.00;33.25;;;;;8.72;73.21;102552.56;5080254;27;45302;-53
2022/11/26 04:11:47;;;;;;;;;36.25;30.50;;;;;8.69;73.43;102556.25;5079581;27;45492;-50
2022/11/26 04:14:12;;;;;;;;;37.75;29.75;;;;;8.67;72.93;102551.97;5079824;27;45468;-55
2022/11/26 04:16:38;;;;;;;;;39.75;32.50;;;;;8.67;73.73;102557.28;5079832;27;45401;-54
2022/11/26 04:19:03;;;;;;;;;35.25;31.75;;;;;8.67;73.01;102565.25;5079739;27;45402;-53
2022/11/26 04:21:29;;;;;;;;;40.25;33.75;;;;;8.64;73.30;102552.19;5079443;27;46417;-52
2022/11/26 04:23:54;;;;;;;;;39.00;33.75;;;;;8.63;72.60;102561.91;5079564;27;45340;-50
2022/11/26 04:26:19;;;;;;;;;39.75;31.50;;;;;8.61;73.22;102552.34;5079635;27;45322;-51
2022/11/26 04:28:45;;;;;;;;;39.25;33.75;;;;;8.59;72.41;102547.13;5079629;27;45342;-51
2022/11/26 04:31:10;;;;;;;;;49.75;35.25;;;;;8.56;72.50;102543.81;5079224;27;47051;-51
2022/11/26 04:33:36;;;;;;;;;46.50;34.00;;;;;8.54;73.37;102538.56;5079366;27;45377;-53
2022/11/26 04:36:01;;;;;;;;;40.00;33.50;;;;;8.53;73.54;102539.53;5079262;27;45425;-54
2022/11/26 04:38:26;;;;;;;;;49.00;32.25;;;;;8.50;72.53;102537.03;5079371;27;45497;-54
2022/11/26 04:40:52;;;;;;;;;34.25;29.25;;;;;8.44;72.48;102543.56;5079151;27;46154;-52
2022/11/26 04:43:18;;;;;;;;;33.25;32.75;;;;;8.44;73.59;102542.72;5078515;27;45768;-54
2022/11/26 04:45:43;;;;;;;;;37.50;31.50;;;;;8.42;72.68;102547.25;5079034;27;45181;-53
2022/11/26 04:48:09;;;;;;;;;39.50;30.00;;;;;8.40;72.23;102546.50;5079485;27;45366;-53
2022/11/26 04:50:34;;;;;;;;;50.25;36.25;;;;;8.38;72.93;102553.66;5078670;27;45366;-53
2022/11/26 04:52:59;;;;;;;;;37.75;34.00;;;;;8.35;73.28;102552.03;5078960;27;45235;-49
2022/11/26 04:55:25;;;;;;;;;32.50;26.25;;;;;8.33;72.89;102550.41;5079116;27;45315;-53
2022/11/26 04:57:50;;;;;;;;;37.25;30.00;;;;;8.33;72.60;102551.25;5079222;27;45473;-53
2022/11/26 05:00:17;;;;;;;;;38.75;34.50;;;;;8.32;73.19;102554.00;5078794;27;46268;-50
2022/11/26 05:02:43;;;;;;;;;43.75;31.25;;;;;8.26;73.49;102557.84;5078899;27;45418;-54
2022/11/26 05:05:09;;;;;;;;;36.25;33.25;;;;;8.23;73.69;102564.19;5078950;27;45486;-46
2022/11/26 05:07:34;;;;;;;;;35.25;27.50;;;;;8.15;73.27;102562.91;5079351;27;45332;-45
2022/11/26 05:10:00;;;;;;;;;39.50;26.75;;;;;8.19;73.89;102567.94;5078855;27;45381;-52
2022/11/26 05:12:25;;;;;;;;;35.75;30.50;;;;;8.18;73.65;102579.50;5078800;27;45312;-53
2022/11/26 05:14:50;;;;;;;;;36.00;28.00;;;;;8.14;74.24;102570.00;5079005;27;45518;-49
2022/11/26 05:17:16;;;;;;;;;36.75;31.75;;;;;8.18;74.49;102571.53;5078905;27;45255;-44
2022/11/26 05:19:41;;;;;;;;;33.50;30.50;;;;;8.19;74.11;102573.25;5078541;27;45507;-45
2022/11/26 05:22:07;;;;;;;;;39.25;32.00;;;;;8.20;73.96;102577.59;5078581;27;45321;-48
2022/11/26 05:24:32;;;;;;;;;37.00;34.25;;;;;8.19;74.48;102581.19;5078731;27;45420;-50
2022/11/26 05:26:58;;;;;;;;;33.25;29.75;;;;;8.16;73.91;102578.72;5078492;27;45342;-45
2022/11/26 05:29:24;;;;;;;;;48.75;37.25;;;;;8.09;74.62;102585.31;5076978;28;47370;-53
2022/11/26 05:31:50;;;;;;;;;34.25;31.50;;;;;8.06;74.33;102585.47;5078637;27;45465;-54
2022/11/26 05:34:15;;;;;;;;;39.00;31.75;;;;;8.08;73.61;102594.19;5078405;27;45245;-46
2022/11/26 05:36:40;;;;;;;;;38.00;31.75;;;;;8.03;73.70;102592.75;5078581;28;45452;-45
2022/11/26 05:39:06;;;;;;;;;38.00;29.00;;;;;8.04;74.04;102591.78;5078526;27;46192;-51
2022/11/26 05:41:31;;;;;;;;;41.75;33.50;;;;;8.01;73.75;102579.59;5078312;27;45409;-45
2022/11/26 05:43:56;;;;;;;;;39.50;29.75;;;;;8.03;73.37;102582.13;5078572;27;45324;-49
2022/11/26 05:46:22;;;;;;;;;47.00;33.00;;;;;8.00;74.00;102585.81;5078101;27;45513;-44
2022/11/26 05:48:47;;;;;;;;;28.50;26.50;;;;;8.00;73.95;102585.81;5078186;27;46983;-54
2022/11/26 05:51:13;;;;;;;;;39.50;33.75;;;;;7.99;73.50;102592.06;5078129;27;45393;-52
2022/11/26 05:53:38;;;;;;;;;28.00;25.75;;;;;7.93;74.22;102595.06;5078028;27;45476;-50
2022/11/26 05:56:04;;;;;;;;;33.00;25.50;;;;;7.89;73.88;102607.63;5077460;27;45441;-55
2022/11/26 05:58:29;;;;;;;;;29.50;28.00;;;;;7.89;74.40;102604.13;5078106;27;45317;-51
2022/11/26 06:00:54;;;;;;;;;34.75;25.25;;;;;7.91;74.03;102610.16;5077906;27;45457;-54
2022/11/26 06:03:20;;;;;;;;;36.75;27.00;;;;;7.86;73.90;102601.63;5077649;27;45343;-53
2022/11/26 06:05:45;;;;;;;;;36.25;27.00;;;;;7.85;74.53;102610.50;5078147;27;45294;-53
2022/11/26 06:08:10;;;;;;;;;33.50;29.00;;;;;7.77;74.84;102602.13;5077931;27;45427;-53
2022/11/26 06:10:36;;;;;;;;;32.25;25.75;;;;;7.79;74.65;102608.19;5077918;27;45376;-48
2022/11/26 06:13:01;;;;;;;;;30.25;24.50;;;;;7.78;75.05;102614.44;5078089;27;45916;-54
2022/11/26 06:15:27;;;;;;;;;29.00;25.25;;;;;7.78;75.14;102628.53;5078430;27;45322;-54
2022/11/26 06:17:52;;;;;;;;;28.75;26.00;;;;;7.84;75.20;102638.81;5077600;27;45904;-45
2022/11/26 06:20:17;;;;;;;;;28.50;25.50;;;;;7.81;74.66;102644.25;5077645;27;45428;-48
2022/11/26 06:22:43;;;;;;;;;27.75;26.25;;;;;7.82;75.37;102659.22;5077868;27;45202;-50
2022/11/26 06:25:12;;;;;;;;;31.00;31.00;;;;;7.86;75.13;102655.47;5077945;27;45400;-52
2022/11/26 06:27:38;;;;;;;;;37.50;28.50;;;;;7.82;74.49;102642.47;5077606;27;46358;-52
2022/11/26 06:30:05;;;;;;;;;33.00;26.25;;;;;7.94;74.45;102649.75;5077465;27;45378;-50
2022/11/26 06:32:31;;;;;;;;;28.50;24.75;;;;;7.88;74.45;102624.47;5077637;27;45349;-52
2022/11/26 06:34:56;;;;;;;;;36.25;28.25;;;;;7.91;74.21;102629.56;5077574;27;45344;-44
2022/11/26 06:37:22;;;;;;;;;31.25;29.25;;;;;7.91;74.61;102640.16;5077347;27;46200;-52
2022/11/26 06:39:47;;;;;;;;;36.75;26.75;;;;;7.88;73.60;102632.41;5077458;27;45350;-51
2022/11/26 06:42:12;;;;;;;;;32.75;28.50;;;;;7.86;73.94;102636.91;5077451;27;45429;-47
2022/11/26 06:44:38;;;;;;;;;34.50;27.50;;;;;7.79;73.79;102630.22;5077851;27;45333;-53
2022/11/26 06:47:03;;;;;;;;;38.00;29.50;;;;;7.77;74.74;102641.88;5077007;27;46175;-44
2022/11/26 06:49:28;;;;;;;;;34.75;27.00;;;;;7.77;74.44;102648.00;5077354;27;45161;-43
2022/11/26 06:51:54;;;;;;;;;31.00;25.00;;;;;7.84;73.68;102644.09;5077201;27;45293;-46
2022/11/26 06:54:19;;;;;;;;;32.75;28.25;;;;;7.89;74.52;102657.09;5077396;27;45190;-45
2022/11/26 06:56:45;;;;;;;;;30.50;28.00;;;;;7.81;74.09;102659.31;5076969;27;45633;-46
2022/11/26 06:59:10;;;;;;;;;37.00;28.00;;;;;7.72;74.17;102665.97;5077112;27;45347;-44
2022/11/26 07:01:36;;;;;;;;;36.00;27.50;;;;;7.69;74.36;102674.06;5077567;28;45455;-51
2022/11/26 07:04:02;;;;;;;;;34.25;27.00;;;;;7.78;74.45;102686.81;5077897;27;45357;-50
2022/11/26 07:06:30;;;;;;;;;34.50;25.50;;;;;7.81;74.16;102669.91;5076320;27;46272;-43
2022/11/26 07:09:00;;;;;;;;;31.00;27.00;;;;;7.84;73.43;102664.44;5077198;27;45524;-45
2022/11/26 07:11:26;;;;;;;;;29.25;28.00;;;;;7.85;74.17;102653.75;5077144;27;45334;-51
2022/11/26 07:13:52;;;;;;;;;25.50;21.50;;;;;7.85;73.90;102656.41;5077148;27;45409;-43
2022/11/26 07:16:18;;;;;;;;;33.75;29.75;;;;;7.71;73.94;102633.31;5077153;28;45306;-52
2022/11/26 07:18:52;;;;;;;;;33.00;25.75;;;;;7.81;73.61;102656.66;5077342;28;45288;-54
2022/11/26 07:21:18;;;;;;;;;23.50;19.75;;;;;7.81;73.65;102661.97;5077118;27;45263;-54
2022/11/26 07:23:44;;;;;;;;;26.25;23.25;;;;;7.79;73.72;102680.56;5077340;27;45459;-54
2022/11/26 07:26:11;;;;;;;;;26.75;24.25;;;;;7.77;73.07;102682.47;5076853;27;46256;-52
2022/11/26 07:28:36;;;;;;;;;32.50;24.00;;;;;7.68;73.35;102662.59;5076634;27;45395;-53
2022/11/26 07:31:08;;;;;;;;;26.25;25.25;;;;;7.73;74.13;102665.88;5076959;27;45353;-54
2022/11/26 07:33:34;;;;;;;;;24.50;23.50;;;;;7.77;73.89;102684.25;5077134;27;45275;-53
2022/11/26 07:36:01;;;;;;;;;21.25;18.75;;;;;7.73;74.03;102688.84;5076517;27;45332;-53
2022/11/26 07:38:28;;;;;;;;;27.50;23.25;;;;;7.67;74.42;102684.75;5076526;27;45351;-54
2022/11/26 07:41:01;;;;;;;;;28.75;22.25;;;;;7.69;73.92;102688.16;5076768;27;45343;-53
2022/11/26 07:43:27;;;;;;;;;25.00;21.00;;;;;7.66;73.53;102677.72;5076984;27;45457;-51
2022/11/26 07:45:52;;;;;;;;;22.75;20.00;;;;;7.62;72.96;102670.84;5076391;27;46571;-51
2022/11/26 07:48:17;;;;;;;;;31.75;24.75;;;;;7.64;73.71;102668.16;5076658;27;45328;-53
2022/11/26 07:50:43;;;;;;;;;28.50;25.25;;;;;7.67;73.92;102671.50;5076686;27;45381;-52
2022/11/26 07:53:09;;;;;;;;;22.00;20.50;;;;;7.68;74.06;102669.69;5076762;27;45620;-51
2022/11/26 07:55:37;;;;;;;;;31.75;25.50;;;;;7.69;73.10;102672.25;5076482;27;46042;-51
2022/11/26 07:58:02;;;;;;;;;27.50;25.25;;;;;7.49;73.67;102645.97;5076228;27;45321;-51
2022/11/26 08:00:28;;;;;;;;;25.25;19.75;;;;;7.47;73.30;102651.34;5075082;28;45737;-53
2022/11/26 08:02:53;;;;;;;;;23.50;19.75;;;;;7.50;73.57;102658.28;5076527;27;45374;-49
2022/11/26 08:05:18;;;;;;;;;30.25;22.25;;;;;7.45;73.65;102652.34;5076189;27;46066;-51
2022/11/26 08:07:44;;;;;;;;;28.75;23.25;;;;;7.37;74.78;102646.59;5076318;28;45766;-54
2022/11/26 08:10:10;;;;;;;;;8.00;4.50;;;;;7.35;74.57;102651.13;5076619;27;45378;-52
2022/11/26 08:12:35;;;;;;;;;25.25;19.25;;;;;7.38;74.50;102661.56;5076335;27;45408;-52
2022/11/26 08:15:01;;;;;;;;;27.50;21.50;;;;;7.40;74.53;102681.72;5076254;27;45397;-49
2022/11/26 08:17:27;;;;;;;;;26.75;23.25;;;;;7.46;74.98;102680.56;5076212;27;45459;-54
2022/11/26 08:19:52;;;;;;;;;31.25;20.50;;;;;7.48;74.46;102687.47;5079712;27;45395;-48
2022/11/26 08:22:17;;;;;;;;;28.50;23.75;;;;;7.44;74.68;102687.72;5079758;27;45309;-52
2022/11/26 08:24:43;;;;;;;;;15.25;7.00;;;;;7.43;75.37;102689.50;5079386;27;46187;-53
2022/11/26 08:27:08;;;;;;;;;37.00;27.00;;;;;7.45;74.02;102689.41;5079850;27;45306;-53
2022/11/26 08:29:35;;;;;;;;;28.50;19.25;;;;;7.40;74.64;102691.44;5079621;27;45245;-49
2022/11/26 08:32:00;;;;;;;;;40.00;31.25;;;;;7.36;75.01;102693.41;5079767;27;45346;-45
2022/11/26 08:34:26;;;;;;;;;33.00;24.00;;;;;7.21;74.64;102676.50;5079236;27;46028;-51
2022/11/26 08:36:53;;;;;;;;;40.75;25.75;;;;;7.34;75.82;102702.38;5079180;27;45396;-46
2022/11/26 08:39:19;;;;;;;;;29.75;24.25;;;;;7.36;75.17;102701.34;5079616;27;45355;-49
2022/11/26 08:41:45;;;;;;;;;30.50;25.25;;;;;7.38;75.31;102688.03;5079563;27;45441;-48
2022/11/26 08:44:10;;;;;;;;;39.75;28.25;;;;;7.38;75.57;102688.03;5079086;27;45306;-49
2022/11/26 08:46:37;;;;;;;;;35.00;26.25;;;;;7.36;75.97;102677.50;5078840;27;45363;-47
2022/11/26 08:49:03;;;;;;;;;27.75;26.00;;;;;7.40;75.94;102678.22;5079124;27;45398;-49
2022/11/26 08:51:29;;;;;;;;;34.75;24.25;;;;;7.40;75.27;102680.84;5079306;27;45326;-49
2022/11/26 08:53:54;;;;;;;;;37.75;29.25;;;;;7.35;75.65;102688.19;5079044;27;46893;-48
2022/11/26 08:56:19;;;;;;;;;50.25;33.50;;;;;7.30;76.58;102680.47;5078895;27;45398;-49
2022/11/26 08:58:47;;;;;;;;;43.50;26.00;;;;;7.30;77.00;102684.94;5079050;27;45573;-51
2022/11/26 09:01:16;;;;;;;;;36.25;32.75;;;;;7.34;76.81;102691.78;5079302;27;45350;-49
2022/11/26 09:03:42;;;;;;;;;36.50;26.25;;;;;7.36;75.54;102689.91;5078238;27;45334;-50
2022/11/26 09:06:08;;;;;;;;;35.00;26.75;;;;;7.36;77.06;102700.47;5078664;27;45435;-49
2022/11/26 09:09:11;;;;;;;;;43.00;31.25;;;;;7.28;77.33;102700.88;5078897;27;45304;-48
2022/11/26 09:11:21;;;;;;;;;43.75;32.00;;;;;7.26;77.63;102708.03;5078998;27;45452;-48
2022/11/26 09:13:47;;;;;;;;;40.50;32.75;;;;;7.30;77.73;102706.09;5077283;28;46347;-48
2022/11/26 09:16:12;;;;;;;;;39.00;30.50;;;;;7.33;76.89;102708.56;5078484;27;45471;-50
2022/11/26 09:18:37;;;;;;;;;48.00;34.75;;;;;7.35;76.26;102701.44;5077481;28;45656;-48
2022/11/26 09:21:03;;;;;;;;;39.75;34.25;;;;;7.23;77.09;102689.66;5078919;27;45467;-49
2022/11/26 09:23:28;;;;;;;;;37.00;31.75;;;;;7.33;77.63;102714.75;5078413;27;45801;-48
2022/11/26 09:25:54;;;;;;;;;35.75;30.50;;;;;7.34;76.81;102715.59;5078563;27;45490;-47
2022/11/26 09:28:19;;;;;;;;;46.00;27.25;;;;;7.39;77.47;102700.34;5078718;27;45435;-47
2022/11/26 09:30:46;;;;;;;;;41.25;32.50;;;;;7.40;77.56;102691.44;5078693;27;45469;-48
2022/11/26 09:33:11;;;;;;;;;37.25;32.75;;;;;7.46;77.69;102691.16;5078238;27;46231;-50
2022/11/26 09:35:37;;;;;;;;;30.25;27.00;;;;;7.48;77.97;102684.81;5078226;27;45461;-49
2022/11/26 09:38:02;;;;;;;;;41.75;25.75;;;;;7.51;76.71;102681.19;5078562;27;45475;-48
2022/11/26 09:40:45;;;;;;;;;42.50;28.50;;;;;7.46;77.77;102689.34;5078678;27;45389;-49
2022/11/26 09:43:33;;;;;;;;;47.75;32.25;;;;;7.44;77.26;102687.72;5078038;27;47453;-44
2022/11/26 09:46:00;;;;;;;;;34.25;27.75;;;;;7.52;78.21;102692.63;5078101;27;45334;-48
2022/11/26 09:48:29;;;;;;;;;32.25;32.00;;;;;7.57;78.59;102685.28;5078319;27;45378;-47
2022/11/26 09:51:13;;;;;;;;;47.50;37.75;;;;;7.60;78.68;102685.13;5077242;27;45446;-47
2022/11/26 09:53:44;;;;;;;;;36.00;27.50;;;;;7.64;77.62;102690.19;5077817;27;47125;-47
2022/11/26 09:56:18;;;;;;;;;41.00;33.75;;;;;7.67;78.40;102690.03;5078220;27;45295;-46
2022/11/26 09:58:56;;;;;;;;;47.50;37.50;;;;;7.72;77.71;102676.56;5078331;27;45346;-47
2022/11/26 10:01:23;;;;;;;;;33.25;31.25;;;;;7.73;78.80;102675.59;5078333;27;45448;-48
2022/11/26 10:03:49;;;;;;;;;43.50;35.50;;;;;7.69;78.82;102666.09;5077939;27;47035;-48
2022/11/26 10:06:51;;;;;;;;;40.00;30.50;;;;;7.79;78.16;102674.41;5078004;27;45510;-47
2022/11/26 10:09:44;;;;;;;;;43.00;31.75;;;;;7.84;78.63;102675.91;5077907;28;45318;-46
2022/11/26 10:12:15;;;;;;;;;35.00;27.25;;;;;7.92;79.17;102678.13;5077954;27;45253;-50
2022/11/26 10:14:50;;;;;;;;;27.00;23.50;;;;;7.94;78.76;102677.13;5077796;27;45422;-47
2022/11/26 10:17:39;;;;;;;;;32.25;24.00;;;;;8.02;79.33;102678.50;5076201;27;45367;-48
2022/11/26 10:20:20;;;;;;;;;49.00;37.50;;;;;8.05;78.34;102679.19;5077916;27;45812;-50
2022/11/26 10:23:11;;;;;;;;;37.25;26.75;;;;;8.08;78.42;102670.22;5077915;27;45436;-49
2022/11/26 10:25:45;;;;;;;;;41.25;29.75;;;;;8.11;78.52;102667.41;5034916;28;45483;-50
2022/11/26 10:28:28;;;;;;;;;39.50;29.00;;;;;8.07;78.74;102677.31;5034916;28;45283;-49
2022/11/26 10:31:05;;;;;;;;;36.75;32.50;;;;;8.15;78.42;102669.78;5035199;28;45388;-51
2022/11/26 10:33:53;;;;;;;;;43.75;29.00;;;;;8.19;78.93;102666.03;5035145;28;45417;-47
2022/11/26 10:36:33;;;;;;;;;34.75;25.50;;;;;8.20;78.72;102656.28;5035010;28;45502;-48
2022/11/26 10:38:58;;;;;;;;;41.25;26.50;;;;;8.22;78.81;102647.31;5034727;28;45545;-49
2022/11/26 10:41:27;;;;;;;;;45.75;31.00;;;;;8.22;79.45;102652.63;5034313;28;45277;-50
2022/11/26 10:43:52;;;;;;;;;46.00;35.25;;;;;8.22;79.49;102654.41;5035291;28;45453;-50
2022/11/26 10:46:34;;;;;;;;;44.00;36.25;;;;;8.20;79.08;102643.03;5034535;28;45408;-48
2022/11/26 10:49:23;;;;;;;;;47.00;34.00;;;;;8.19;78.80;102646.63;5034809;28;45411;-49
2022/11/26 10:51:50;;;;;;;;;41.75;33.50;;;;;8.18;78.45;102652.88;5034931;28;45382;-48
2022/11/26 10:54:25;;;;;;;;;41.00;31.00;;;;;8.17;79.69;102651.13;5034857;28;45323;-48
2022/11/26 10:56:54;;;;;;;;;37.50;27.75;;;;;8.22;79.65;102649.97;5034339;28;47059;-49
2022/11/26 10:59:35;;;;;;;;;39.00;26.50;;;;;8.22;80.31;102654.41;5034574;28;45400;-47
2022/11/26 11:02:21;;;;;;;;;32.25;26.25;;;;;8.20;79.33;102651.84;5046035;27;45378;-46
2022/11/26 11:04:53;;;;;;;;;36.00;25.75;;;;;8.22;80.08;102655.28;5077320;27;45335;-49
2022/11/26 11:07:36;;;;;;;;;40.25;29.50;;;;;8.24;79.80;102657.81;5076809;27;46077;-47
2022/11/26 11:10:08;;;;;;;;;35.50;26.75;;;;;8.28;79.53;102662.03;5076931;27;45195;-50
2022/11/26 11:12:35;;;;;;;;;27.50;25.25;;;;;8.30;79.85;102656.63;5077299;27;45282;-47
2022/11/26 11:15:19;;;;;;;;;33.25;27.75;;;;;8.29;79.57;102655.78;5077133;28;45252;-49
2022/11/26 11:18:05;;;;;;;;;39.25;30.00;;;;;8.32;79.88;102652.09;5076706;27;47116;-48
2022/11/26 11:20:36;;;;;;;;;12.00;9.25;;;;;8.33;79.64;102646.72;5076264;27;45412;-48
2022/11/26 11:23:24;;;;;;;;;42.75;31.00;;;;;8.35;79.12;102642.19;5076869;27;45323;-49